Time;durP1;ratioP1;P1;durP2;ratioP2;P2;SDS_P1;SDS_P2;PMS_P1;PMS_P2;Temp;Humidity;BMP_temperature;BMP_pressure;BME280_temperature;BME280_humidity;BME280_pressure;Samples;Min_cycle;Max_cycle;Signal;HPM_P1;HPM_P2
2023/10/13 00:03:15;;;;;;;4.20;2.70;;;;;;;13.59;100.00;101117.28;6148967;28;20239;-71
2023/10/13 00:06:37;;;;;;;5.90;3.07;;;;;;;13.40;100.00;101117.34;6151498;28;20342;-71
2023/10/13 00:09:59;;;;;;;3.67;2.03;;;;;;;13.41;100.00;101115.50;6145434;28;20250;-70
2023/10/13 00:13:21;;;;;;;5.33;2.17;;;;;;;13.36;100.00;101118.66;6147758;28;20234;-71
2023/10/13 00:16:42;;;;;;;7.37;3.53;;;;;;;13.28;100.00;101101.44;6149138;28;20231;-71
2023/10/13 00:20:11;;;;;;;5.53;2.77;;;;;;;13.34;100.00;101106.25;6147168;28;20231;-71
2023/10/13 00:23:32;;;;;;;5.27;3.43;;;;;;;13.28;100.00;101102.28;6144842;28;20553;-71
2023/10/13 00:26:55;;;;;;;10.30;3.70;;;;;;;13.33;100.00;101096.44;6146014;28;20230;-71
2023/10/13 00:30:17;;;;;;;4.73;2.63;;;;;;;13.40;100.00;101102.94;6139953;28;20235;-71
2023/10/13 00:33:38;;;;;;;4.67;2.87;;;;;;;13.43;100.00;101099.94;6143020;28;20242;-71
2023/10/13 00:37:17;;;;;;;5.87;3.70;;;;;;;13.38;100.00;101099.53;6147391;28;20620;-71
2023/10/13 00:40:51;;;;;;;6.70;2.80;;;;;;;13.64;100.00;101098.69;6147908;28;20231;-70
2023/10/13 00:44:16;;;;;;;5.83;3.27;;;;;;;13.60;100.00;101080.22;6152043;28;20511;-71
2023/10/13 00:47:47;;;;;;;6.23;2.90;;;;;;;13.45;100.00;101074.44;6149857;28;20259;-71
2023/10/13 00:51:18;;;;;;;8.93;3.43;;;;;;;13.42;100.00;101071.16;6146353;28;20250;-71
2023/10/13 00:54:39;;;;;;;9.57;3.87;;;;;;;13.39;100.00;101075.00;6143114;28;20238;-72
2023/10/13 00:58:03;;;;;;;6.80;3.43;;;;;;;13.28;100.00;101058.97;6163272;28;20234;-72
2023/10/13 01:01:29;;;;;;;5.23;4.53;;;;;;;13.31;100.00;101064.06;6149173;28;20519;-72
2023/10/13 01:04:51;;;;;;;6.93;4.13;;;;;;;13.36;100.00;101066.34;6160690;28;20230;-71
2023/10/13 01:08:12;;;;;;;6.53;4.43;;;;;;;13.37;100.00;101055.34;6143297;28;20235;-71
2023/10/13 01:11:32;;;;;;;7.97;3.80;;;;;;;13.50;100.00;101053.16;6147227;28;20258;-71
2023/10/13 01:14:57;;;;;;;6.20;3.47;;;;;;;13.46;100.00;101038.19;6147092;28;20490;-71
2023/10/13 01:18:20;;;;;;;4.90;3.83;;;;;;;13.37;100.00;101030.97;6147844;28;20787;-71
2023/10/13 01:21:41;;;;;;;7.47;4.67;;;;;;;13.42;100.00;101027.81;6155933;28;20239;-71
2023/10/13 01:25:05;;;;;;;7.00;5.70;;;;;;;13.49;100.00;101021.66;6155847;28;20230;-71
2023/10/13 01:28:25;;;;;;;9.30;4.37;;;;;;;13.48;100.00;101017.25;6145179;28;20410;-72
2023/10/13 01:31:47;;;;;;;12.40;4.53;;;;;;;13.50;100.00;101011.66;6143250;28;20230;-72
2023/10/13 01:35:07;;;;;;;8.93;4.70;;;;;;;13.55;100.00;101021.06;6150480;28;20243;-72
2023/10/13 01:38:33;;;;;;;7.03;4.70;;;;;;;13.57;100.00;101008.22;6130982;28;20680;-72
2023/10/13 01:41:56;;;;;;;10.33;3.90;;;;;;;13.52;100.00;101020.47;6146198;28;20515;-70
2023/10/13 01:45:19;;;;;;;7.50;4.73;;;;;;;13.53;100.00;101003.25;6146463;28;20222;-72
2023/10/13 01:48:41;;;;;;;6.67;4.87;;;;;;;13.58;100.00;100990.94;6140994;28;20319;-71
2023/10/13 01:52:03;;;;;;;6.70;4.27;;;;;;;13.56;100.00;100982.13;6145749;28;20251;-72
2023/10/13 01:55:25;;;;;;;7.37;4.33;;;;;;;13.71;100.00;100974.31;6143817;28;20222;-72
2023/10/13 01:58:47;;;;;;;10.93;5.67;;;;;;;13.56;100.00;100974.00;6144271;28;20246;-72
2023/10/13 02:02:12;;;;;;;7.03;4.47;;;;;;;13.76;100.00;100968.44;6149794;28;20238;-72
2023/10/13 02:05:36;;;;;;;10.53;6.50;;;;;;;13.68;100.00;100962.94;6144655;28;20566;-72
2023/10/13 02:08:58;;;;;;;10.33;5.40;;;;;;;13.61;100.00;100962.69;6147627;28;20231;-72
2023/10/13 02:12:25;;;;;;;8.00;4.77;;;;;;;13.67;100.00;100951.25;6144724;28;20880;-70
2023/10/13 02:15:48;;;;;;;8.37;5.70;;;;;;;13.58;100.00;100946.75;6146869;28;20246;-72
2023/10/13 02:19:09;;;;;;;9.63;5.47;;;;;;;13.59;100.00;100943.91;6146717;28;20242;-71
2023/10/13 02:22:31;;;;;;;12.20;7.57;;;;;;;13.54;100.00;100931.81;6146643;28;20238;-72
2023/10/13 02:26:00;;;;;;;8.67;6.50;;;;;;;13.57;100.00;100926.94;6147236;28;20238;-72
2023/10/13 02:29:21;;;;;;;7.10;6.03;;;;;;;13.64;100.00;100936.13;6154878;28;20233;-71
2023/10/13 02:32:44;;;;;;;10.07;6.10;;;;;;;13.69;100.00;100927.56;6147449;28;20235;-72
2023/10/13 02:36:05;;;;;;;7.90;7.10;;;;;;;13.75;100.00;100913.38;6144205;28;20341;-72
2023/10/13 02:39:27;;;;;;;10.33;5.43;;;;;;;13.71;100.00;100898.44;6144227;28;20246;-72
2023/10/13 02:42:48;;;;;;;10.20;5.43;;;;;;;13.66;100.00;100902.63;6161549;28;20242;-71
2023/10/13 02:46:09;;;;;;;12.07;6.67;;;;;;;13.67;100.00;100893.50;6150406;28;20234;-71
2023/10/13 02:49:33;;;;;;;8.80;6.33;;;;;;;13.69;100.00;100895.03;6149923;28;20238;-71
2023/10/13 02:52:54;;;;;;;10.43;7.33;;;;;;;13.83;100.00;100885.53;6150415;28;20246;-71
2023/10/13 02:56:20;;;;;;;11.13;6.97;;;;;;;13.76;100.00;100888.00;6148693;28;20268;-71
2023/10/13 02:59:46;;;;;;;7.97;6.50;;;;;;;13.79;100.00;100878.72;6150335;28;20322;-71
2023/10/13 03:03:07;;;;;;;16.50;8.93;;;;;;;13.81;100.00;100874.00;6160185;28;20329;-71
2023/10/13 03:06:33;;;;;;;14.07;8.07;;;;;;;13.87;100.00;100874.19;6153071;28;20222;-71
2023/10/13 03:09:57;;;;;;;15.10;7.57;;;;;;;13.77;100.00;100867.19;6151216;28;20258;-71
2023/10/13 03:13:18;;;;;;;10.50;7.53;;;;;;;13.82;100.00;100857.56;6144943;28;20321;-71
2023/10/13 03:16:40;;;;;;;12.10;8.07;;;;;;;13.85;100.00;100853.69;6144945;28;20230;-71
2023/10/13 03:20:01;;;;;;;11.90;8.77;;;;;;;13.78;100.00;100839.94;6149584;28;20500;-71
2023/10/13 03:23:24;;;;;;;13.60;7.37;;;;;;;13.83;100.00;100839.47;6150519;28;20264;-71
2023/10/13 03:26:52;;;;;;;19.20;8.70;;;;;;;13.93;100.00;100841.06;6147857;28;20234;-71
2023/10/13 03:30:15;;;;;;;12.20;7.87;;;;;;;13.95;100.00;100833.63;6158673;28;20239;-70
2023/10/13 03:33:38;;;;;;;6.93;6.27;;;;;;;13.92;100.00;100833.94;6145036;28;20262;-71
2023/10/13 03:36:59;;;;;;;8.97;7.07;;;;;;;13.93;100.00;100838.34;6143038;28;20246;-70
2023/10/13 03:44:09;;;;;;;8.07;6.97;;;;;;;13.95;100.00;100830.91;6148880;28;20249;-71
2023/10/13 03:47:32;;;;;;;10.20;6.40;;;;;;;14.05;100.00;100826.22;6144223;28;20246;-70
2023/10/13 03:51:01;;;;;;;6.70;5.80;;;;;;;14.06;100.00;100817.06;6145328;28;20242;-70
2023/10/13 03:54:22;;;;;;;5.50;4.83;;;;;;;14.06;100.00;100810.81;6149421;28;20234;-71
2023/10/13 03:57:50;;;;;;;9.57;6.83;;;;;;;14.10;100.00;100804.91;6147927;28;20234;-72
2023/10/13 04:01:12;;;;;;;6.00;5.50;;;;;;;14.10;100.00;100804.06;6139332;28;20258;-70
2023/10/13 04:04:48;;;;;;;7.67;6.60;;;;;;;14.10;100.00;100809.50;6145387;28;20230;-71
2023/10/13 04:15:42;;;;;;;7.23;6.53;;;;;;;14.16;100.00;100789.88;6150931;28;20246;-70
2023/10/13 04:19:09;;;;;;;8.57;7.47;;;;;;;14.16;100.00;100785.28;6143190;28;20238;-70
2023/10/13 04:23:17;;;;;;;15.43;8.43;;;;;;;14.27;100.00;100789.56;6139737;28;20703;-70
2023/10/13 04:26:21;;;;;;;8.63;7.07;;;;;;;14.28;100.00;100784.03;6150958;28;20234;-70
2023/10/13 04:29:56;;;;;;;8.50;7.60;;;;;;;14.34;100.00;100777.09;6156474;28;20226;-71
2023/10/13 04:33:35;;;;;;;10.23;7.70;;;;;;;14.36;100.00;100765.09;6154338;28;20234;-70
2023/10/13 04:37:22;;;;;;;9.13;8.33;;;;;;;14.38;100.00;100759.47;6158562;28;20242;-70
2023/10/13 04:40:58;;;;;;;12.00;9.07;;;;;;;14.41;100.00;100754.56;6152906;28;20231;-70
2023/10/13 04:48:13;;;;;;;10.50;9.37;;;;;;;14.58;100.00;100735.66;6167534;28;20231;-70
2023/10/13 04:51:49;;;;;;;14.23;9.20;;;;;;;14.62;100.00;100729.75;6156298;28;20226;-71
2023/10/13 04:55:16;;;;;;;11.47;8.70;;;;;;;14.69;100.00;100719.91;6153185;28;20511;-70
2023/10/13 04:59:15;;;;;;;13.17;10.73;;;;;;;14.69;100.00;100709.06;6155815;28;20230;-71
2023/10/13 05:02:43;;;;;;;16.70;10.47;;;;;;;14.79;100.00;100706.19;6154168;28;20226;-70
2023/10/13 05:44:33;;;;;;;15.27;9.77;;;;;;;14.87;100.00;100692.63;6156746;28;20656;-70
2023/10/13 05:47:01;;;;;;;19.83;16.80;;;;;;;15.62;0.00;100635.22;6152569;28;20235;-69
2023/10/13 06:30:35;;;;;;;20.00;16.83;;;;;;;16.11;0.00;100607.81;6154568;28;20254;-70
2023/10/13 06:33:56;;;;;;;20.27;17.67;;;;;;;16.14;0.00;100610.19;6163721;28;20599;-72
2023/10/13 06:37:24;;;;;;;23.67;16.70;;;;;;;16.13;0.00;100600.31;6154486;28;20227;-69
2023/10/13 06:40:48;;;;;;;20.23;17.30;;;;;;;16.13;0.00;100603.03;6146104;28;20652;-70
2023/10/13 06:44:15;;;;;;;24.63;17.90;;;;;;;16.15;0.00;100599.13;6165182;28;20322;-69
2023/10/13 06:47:39;;;;;;;23.67;18.80;;;;;;;16.17;0.00;100596.22;6162755;28;20234;-71
2023/10/13 06:51:04;;;;;;;23.93;17.90;;;;;;;16.19;0.00;100594.19;6155509;28;20234;-69
2023/10/13 06:54:25;;;;;;;20.97;18.87;;;;;;;16.18;0.00;100592.47;6152670;28;20608;-69
2023/10/13 06:57:49;;;;;;;19.60;17.53;;;;;;;16.20;0.00;100583.13;6155595;28;20242;-73
2023/10/13 07:01:14;;;;;;;19.80;17.87;;;;;;;16.21;0.00;100582.06;6158909;28;20585;-71
2023/10/13 07:04:39;;;;;;;20.33;18.03;;;;;;;16.23;0.00;100568.31;6157273;28;20308;-69
2023/10/13 07:08:01;;;;;;;19.90;17.83;;;;;;;16.24;0.00;100562.69;6164699;28;20230;-68
2023/10/13 07:11:33;;;;;;;22.33;18.30;;;;;;;16.27;0.00;100558.75;6158992;28;20243;-68
2023/10/13 07:15:10;;;;;;;22.33;19.60;;;;;;;16.28;0.00;100553.13;6158700;28;20631;-68
2023/10/13 07:18:36;;;;;;;21.73;19.47;;;;;;;16.28;0.00;100564.03;6162008;28;20233;-70
2023/10/13 07:21:59;;;;;;;20.40;18.40;;;;;;;16.28;0.00;100547.69;6159265;28;20329;-69
2023/10/13 07:25:23;;;;;;;21.63;19.43;;;;;;;16.28;0.00;100549.56;6154193;28;20238;-69
2023/10/13 07:28:44;;;;;;;23.17;19.90;;;;;;;16.34;0.00;100541.53;6154672;28;20219;-68
2023/10/13 07:32:12;;;;;;;17.57;15.83;;;;;;;16.30;0.00;100534.75;6148352;28;20243;-70
2023/10/13 07:35:35;;;;;;;19.47;17.53;;;;;;;16.30;0.00;100521.16;6158236;28;20238;-70
2023/10/13 07:39:20;;;;;;;19.93;17.77;;;;;;;16.33;0.00;100514.50;6156369;28;20231;-69
2023/10/13 07:42:40;;;;;;;19.63;17.77;;;;;;;16.31;0.00;100517.38;6155177;28;20238;-70
2023/10/13 07:46:09;;;;;;;24.17;17.00;;;;;;;16.31;0.00;100494.81;6159366;28;20575;-68
2023/10/13 07:49:32;;;;;;;16.07;14.57;;;;;;;16.32;0.00;100472.00;6153948;28;20234;-69
2023/10/13 07:53:04;;;;;;;21.77;15.03;;;;;;;16.35;0.00;100468.91;6158395;28;20238;-69
2023/10/13 07:56:30;;;;;;;16.37;14.67;;;;;;;16.34;0.00;100468.06;6160415;28;20325;-69
2023/10/13 07:59:53;;;;;;;12.83;11.53;;;;;;;16.34;0.00;100465.34;6155885;28;20238;-69
2023/10/13 08:06:50;;;;;;;16.33;12.83;;;;;;;16.34;0.00;100450.88;6151007;28;20662;-71
2023/10/13 08:10:24;;;;;;;12.50;11.00;;;;;;;16.36;0.00;100459.72;6155174;28;20546;-70
2023/10/13 08:13:47;;;;;;;13.93;12.67;;;;;;;16.32;0.00;100442.91;6147782;28;20237;-72
2023/10/13 08:17:12;;;;;;;11.43;10.40;;;;;;;16.34;0.00;100432.69;6156470;28;20226;-69
2023/10/13 08:20:38;;;;;;;12.27;10.93;;;;;;;16.34;0.00;100419.09;6158300;28;20619;-69
2023/10/13 08:24:06;;;;;;;11.90;10.73;;;;;;;16.32;0.00;100423.03;6164731;28;20255;-68
2023/10/13 08:27:34;;;;;;;11.57;10.27;;;;;;;16.33;0.00;100411.97;6159877;28;20226;-69
2023/10/13 08:30:56;;;;;;;11.50;10.40;;;;;;;16.31;0.00;100408.56;6162816;28;20222;-70
2023/10/13 08:34:23;;;;;;;9.80;8.23;;;;;;;16.34;0.00;100420.97;6166995;28;20231;-69
2023/10/13 08:37:59;;;;;;;11.37;10.37;;;;;;;16.33;0.00;100402.97;6168726;28;20308;-70
2023/10/13 08:41:53;;;;;;;11.63;10.47;;;;;;;16.32;0.00;100402.13;6152432;28;22134;-70
2023/10/13 08:45:53;;;;;;;10.90;9.90;;;;;;;16.31;0.00;100411.28;6160736;28;20235;-70
2023/10/13 08:49:08;;;;;;;10.67;9.57;;;;;;;16.30;0.00;100397.88;6161349;28;20239;-70
2023/10/13 08:52:46;;;;;;;9.20;7.80;;;;;;;16.30;0.00;100396.00;6156046;28;20235;-70
2023/10/13 08:56:14;;;;;;;9.07;8.27;;;;;;;16.31;0.00;100397.69;6165299;28;20230;-69
2023/10/13 08:59:38;;;;;;;6.33;5.83;;;;;;;16.30;0.00;100396.00;6164313;28;20599;-69
2023/10/13 09:06:37;;;;;;;7.20;6.60;;;;;;;16.34;0.00;100388.31;6165623;28;20234;-68
2023/10/13 09:10:11;;;;;;;8.13;6.00;;;;;;;16.34;0.00;100375.56;6166376;28;20525;-70
2023/10/13 09:13:43;;;;;;;5.80;5.30;;;;;;;16.42;0.00;100388.22;6163385;28;20525;-69
2023/10/13 09:17:09;;;;;;;5.53;5.07;;;;;;;16.45;0.00;100398.75;6167331;28;20238;-69
2023/10/13 09:20:42;;;;;;;6.53;5.80;;;;;;;16.54;0.00;100397.69;6151701;28;20245;-68
2023/10/13 09:24:27;;;;;;;4.77;4.27;;;;;;;16.70;0.00;100392.06;6162785;28;20237;-70
2023/10/13 09:27:51;;;;;;;3.83;3.43;;;;;;;16.92;0.00;100393.81;6162567;28;20227;-69
2023/10/13 09:31:12;;;;;;;4.97;3.70;;;;;;;16.94;0.00;100394.47;6159708;28;20601;-69
2023/10/13 09:34:40;;;;;;;8.30;4.53;;;;;;;17.05;0.00;100379.53;6167795;28;20238;-68
2023/10/13 09:38:02;;;;;;;4.00;3.67;;;;;;;17.12;0.00;100385.94;6158498;28;20225;-70
2023/10/13 09:41:27;;;;;;;5.47;4.03;;;;;;;17.22;0.00;100368.25;6165975;28;20624;-69
2023/10/13 09:44:51;;;;;;;5.90;4.43;;;;;;;17.25;13.12;100373.28;6162718;28;20590;-70
2023/10/13 09:48:21;;;;;;;2.77;2.53;;;;;;;17.31;57.10;100363.53;6159648;28;20327;-69
2023/10/13 09:51:44;;;;;;;3.33;3.00;;;;;;;17.30;100.00;100351.78;6159442;28;20266;-68
2023/10/13 09:55:22;;;;;;;10.60;4.07;;;;;;;17.21;100.00;100354.81;6157126;28;20263;-69
2023/10/13 09:58:51;;;;;;;4.70;4.07;;;;;;;17.20;100.00;100336.78;6160625;28;20231;-69
2023/10/13 10:02:18;;;;;;;5.13;3.43;;;;;;;17.21;100.00;100333.84;6162921;28;20246;-69
2023/10/13 10:05:39;;;;;;;5.77;3.77;;;;;;;17.19;100.00;100344.09;6155544;28;20238;-69
2023/10/13 10:09:12;;;;;;;5.10;3.80;;;;;;;17.18;100.00;100319.78;6149779;28;20781;-69
2023/10/13 10:12:45;;;;;;;5.30;3.90;;;;;;;17.18;100.00;100317.06;6144606;28;20246;-68
2023/10/13 10:16:14;;;;;;;12.30;3.90;;;;;;;17.17;100.00;100299.84;6155354;28;20226;-68
2023/10/13 10:19:45;;;;;;;3.83;3.50;;;;;;;17.20;100.00;100302.22;6146836;28;20225;-69
2023/10/13 10:23:09;;;;;;;4.30;3.27;;;;;;;17.23;100.00;100299.09;6154907;28;20246;-68
2023/10/13 10:26:32;;;;;;;5.07;4.57;;;;;;;17.31;100.00;100296.22;6159194;28;20584;-69
2023/10/13 10:29:56;;;;;;;5.40;3.93;;;;;;;17.35;100.00;100274.91;6152935;28;20234;-69
2023/10/13 10:33:18;;;;;;;4.63;3.77;;;;;;;17.41;100.00;100277.69;6156168;28;20288;-72
2023/10/13 10:36:42;;;;;;;7.38;3.60;;;;;;;17.43;100.00;100272.06;6145015;28;20313;-69
2023/10/13 10:40:08;;;;;;;7.90;4.20;;;;;;;17.48;100.00;100264.97;6151640;28;20262;-67
2023/10/13 10:43:42;;;;;;;7.28;4.40;;;;;;;17.55;100.00;100262.34;6152573;28;20253;-67
2023/10/13 10:47:11;;;;;;;7.23;4.67;;;;;;;17.66;100.00;100258.25;6154457;28;20644;-70
2023/10/13 10:50:35;;;;;;;4.25;3.50;;;;;;;17.83;100.00;100235.94;6153420;28;20274;-70
2023/10/13 10:53:57;;;;;;;5.40;3.92;;;;;;;17.99;100.00;100222.00;6152195;28;20265;-69
2023/10/13 10:57:19;;;;;;;7.20;3.60;;;;;;;17.87;100.00;100214.56;6160960;28;20372;-69
2023/10/13 11:00:46;;;;;;;3.92;3.60;;;;;;;17.93;100.00;100214.63;6157481;28;20242;-69
2023/10/13 11:04:18;;;;;;;4.25;3.85;;;;;;;18.04;100.00;100221.41;6153521;28;20238;-69
2023/10/13 11:07:49;;;;;;;4.80;4.35;;;;;;;17.96;100.00;100206.00;6157616;28;20940;-72
2023/10/13 11:11:17;;;;;;;9.07;5.00;;;;;;;17.96;100.00;100211.47;6155035;28;20250;-72
2023/10/13 11:14:38;;;;;;;6.60;4.30;;;;;;;18.21;100.00;100190.84;6153345;28;20363;-70
2023/10/13 11:18:05;;;;;;;9.13;5.40;;;;;;;18.21;100.00;100176.38;6156835;28;20648;-68
2023/10/13 11:21:30;;;;;;;4.63;4.22;;;;;;;18.22;100.00;100178.06;6151967;28;20886;-72
2023/10/13 11:24:51;;;;;;;6.57;5.20;;;;;;;18.32;100.00;100163.00;6149474;28;20238;-68
2023/10/13 11:28:19;;;;;;;7.80;4.63;;;;;;;18.71;100.00;100147.84;6151037;28;20238;-68
2023/10/13 11:31:41;;;;;;;9.20;4.88;;;;;;;19.16;100.00;100147.06;6156691;28;20262;-68
2023/10/13 11:35:09;;;;;;;4.63;3.80;;;;;;;18.87;100.00;100156.47;6154389;28;20230;-67
2023/10/13 11:38:42;;;;;;;5.63;3.88;;;;;;;18.99;100.00;100127.50;6154546;28;20234;-70
2023/10/13 11:42:10;;;;;;;6.80;4.75;;;;;;;19.17;100.00;100124.13;6152298;28;20243;-70
2023/10/13 11:45:32;;;;;;;6.47;3.85;;;;;;;19.34;100.00;100103.56;6154570;28;20816;-69
2023/10/13 11:48:54;;;;;;;6.13;4.07;;;;;;;19.36;100.00;100104.19;6155377;28;20684;-69
2023/10/13 11:52:16;;;;;;;6.90;3.80;;;;;;;19.43;100.00;100096.81;6158730;28;20322;-68
2023/10/13 11:55:37;;;;;;;6.65;3.33;;;;;;;19.58;100.00;100099.31;6153605;28;20234;-70
2023/10/13 11:59:01;;;;;;;6.32;3.72;;;;;;;19.93;100.00;100128.91;6154512;28;20506;-72
2023/10/13 12:06:18;;;;;;;9.40;4.13;;;;;;;19.67;100.00;100093.41;6149343;28;20572;-70
2023/10/13 12:09:57;;;;;;;7.78;3.53;;;;;;;19.69;100.00;100085.81;6154375;28;20227;-70
2023/10/13 12:13:18;;;;;;;6.35;4.70;;;;;;;19.75;100.00;100084.13;6153434;28;20226;-69
2023/10/13 12:16:38;;;;;;;5.97;3.20;;;;;;;19.86;100.00;100067.88;6154226;28;20230;-68
2023/10/13 12:19:59;;;;;;;7.38;4.07;;;;;;;19.99;100.00;100061.53;6157769;28;20230;-68
2023/10/13 12:23:31;;;;;;;6.18;3.75;;;;;;;20.07;100.00;100052.25;6152284;28;24872;-69
2023/10/13 12:26:55;;;;;;;10.40;4.18;;;;;;;20.06;100.00;100065.09;6154909;28;20810;-69
2023/10/13 12:30:22;;;;;;;14.70;5.20;;;;;;;20.08;100.00;100062.13;6154742;28;20231;-70
2023/10/13 12:33:43;;;;;;;5.53;3.55;;;;;;;20.10;100.00;100055.38;6154601;28;20321;-69
2023/10/13 12:37:24;;;;;;;8.23;3.45;;;;;;;20.10;100.00;100038.09;6152466;28;20238;-71
2023/10/13 12:52:00;;;;;;;6.03;3.65;;;;;;;20.25;100.00;100017.66;6116497;28;20548;-70
2023/10/13 12:55:24;;;;;;;4.50;3.55;;;;;;;20.38;100.00;100044.91;6154211;28;20819;-69
2023/10/13 12:58:51;;;;;;;6.40;3.40;;;;;;;20.37;100.00;100048.75;6163700;28;20306;-69
2023/10/13 13:02:15;;;;;;;5.80;3.88;;;;;;;20.29;100.00;100016.16;6153414;28;20321;-69
2023/10/13 13:05:44;;;;;;;6.28;4.25;;;;;;;20.30;100.00;100022.44;6150177;28;23186;-69
2023/10/13 13:09:09;;;;;;;7.40;3.58;;;;;;;20.39;100.00;100016.50;6162839;28;20242;-69
2023/10/13 13:12:30;;;;;;;5.18;3.13;;;;;;;20.46;100.00;100008.25;6167250;28;20565;-70
2023/10/13 13:15:52;;;;;;;5.88;4.00;;;;;;;20.46;100.00;100008.25;6162065;28;20320;-68
2023/10/13 13:19:14;;;;;;;5.47;3.60;;;;;;;20.48;100.00;100006.97;6162831;28;20700;-69
2023/10/13 13:22:35;;;;;;;7.43;4.13;;;;;;;20.73;100.00;100000.66;6169084;28;20249;-68
2023/10/13 13:25:57;;;;;;;4.60;3.60;;;;;;;21.19;100.00;99988.25;6163067;28;20230;-69
2023/10/13 13:29:18;;;;;;;6.65;4.15;;;;;;;21.35;100.00;99997.78;6171698;28;20234;-68
2023/10/13 13:32:40;;;;;;;4.97;3.75;;;;;;;21.85;100.00;99988.34;6170103;28;20234;-69
2023/10/13 13:36:04;;;;;;;6.15;3.88;;;;;;;22.06;100.00;99954.06;6171782;28;20230;-69
2023/10/13 13:39:30;;;;;;;9.27;3.60;;;;;;;21.84;100.00;99950.16;6169953;28;20604;-69
2023/10/13 13:42:50;;;;;;;4.80;3.85;;;;;;;21.82;100.00;99950.38;6150045;28;20234;-68
2023/10/13 13:46:11;;;;;;;6.53;3.40;;;;;;;21.23;100.00;99944.75;6161989;28;20254;-69
2023/10/13 13:49:39;;;;;;;7.03;3.35;;;;;;;21.03;100.00;99942.22;6167583;28;20256;-69
2023/10/13 13:53:02;;;;;;;9.35;4.25;;;;;;;20.98;100.00;99932.97;6165227;28;20225;-69
2023/10/13 13:56:25;;;;;;;5.85;4.50;;;;;;;20.92;100.00;99931.16;6159535;28;20261;-68
2023/10/13 13:59:46;;;;;;;6.30;4.35;;;;;;;20.91;100.00;99938.53;6174054;28;20897;-70
2023/10/13 14:03:12;;;;;;;7.47;4.35;;;;;;;20.83;100.00;99946.19;6159467;28;20325;-69
2023/10/13 14:06:34;;;;;;;7.07;3.95;;;;;;;20.77;100.00;99953.41;6168258;28;20229;-70
2023/10/13 14:10:05;;;;;;;6.15;3.78;;;;;;;20.67;100.00;99933.91;6160041;28;20230;-68
2023/10/13 14:13:48;;;;;;;5.45;3.17;;;;;;;20.65;100.00;99927.81;6168177;28;20891;-69
2023/10/13 14:17:09;;;;;;;6.82;4.05;;;;;;;20.69;100.00;99926.31;6169378;28;20384;-69
2023/10/13 14:20:30;;;;;;;7.50;3.80;;;;;;;20.71;100.00;99915.97;6178603;28;20258;-68
2023/10/13 14:23:53;;;;;;;9.18;4.28;;;;;;;20.58;100.00;99916.06;6167222;28;20230;-69
2023/10/13 14:27:17;;;;;;;8.00;4.18;;;;;;;20.58;100.00;99924.28;6173281;28;20321;-69
2023/10/13 14:30:38;;;;;;;17.88;3.85;;;;;;;20.65;100.00;99931.38;6179023;28;20234;-69
2023/10/13 14:33:59;;;;;;;12.48;4.78;;;;;;;20.56;100.00;99912.72;6164365;28;20599;-69
2023/10/13 14:37:26;;;;;;;6.97;4.30;;;;;;;20.52;100.00;99904.13;6160616;28;20235;-69
2023/10/13 14:40:48;;;;;;;6.90;4.40;;;;;;;20.46;100.00;99915.13;6170043;28;20249;-68
2023/10/13 14:44:12;;;;;;;8.00;4.82;;;;;;;20.62;100.00;99890.75;6171678;28;20241;-69
2023/10/13 14:47:33;;;;;;;8.85;4.72;;;;;;;20.74;100.00;99899.06;6173478;28;20226;-68
2023/10/13 14:50:54;;;;;;;8.80;5.03;;;;;;;20.66;100.00;99896.63;6163305;28;20588;-69
2023/10/13 14:54:15;;;;;;;7.03;5.00;;;;;;;20.67;100.00;99885.41;6176439;28;20238;-69
2023/10/13 14:57:37;;;;;;;6.57;4.72;;;;;;;20.67;100.00;99874.47;6160823;28;20249;-68
2023/10/13 15:01:00;;;;;;;10.45;5.28;;;;;;;20.64;100.00;99882.31;6172686;28;20234;-70
2023/10/13 15:04:24;;;;;;;5.88;4.15;;;;;;;20.69;100.00;99874.25;6180145;28;20245;-68
2023/10/13 15:07:45;;;;;;;7.80;4.72;;;;;;;20.83;100.00;99866.72;6161174;28;20231;-69
2023/10/13 15:11:12;;;;;;;10.32;4.57;;;;;;;20.87;100.00;99870.69;6172892;28;20270;-68
2023/10/13 15:14:36;;;;;;;11.70;4.82;;;;;;;20.80;100.00;99873.50;6178515;28;20237;-69
2023/10/13 15:17:58;;;;;;;6.28;4.47;;;;;;;21.01;100.00;99864.84;6172752;28;20566;-68
2023/10/13 15:21:21;;;;;;;5.95;4.68;;;;;;;21.13;100.00;99857.53;6166395;28;20254;-68
2023/10/13 15:24:45;;;;;;;8.98;5.00;;;;;;;21.08;100.00;99862.06;6178123;28;20250;-68
2023/10/13 15:28:09;;;;;;;11.00;4.75;;;;;;;21.07;100.00;99850.25;6172008;28;20241;-68
2023/10/13 15:31:38;;;;;;;9.15;5.70;;;;;;;21.19;100.00;99861.28;6169867;28;20234;-69
2023/10/13 15:35:00;;;;;;;8.70;4.70;;;;;;;21.08;100.00;99864.78;6172420;28;20233;-69
2023/10/13 15:38:22;;;;;;;10.13;4.53;;;;;;;21.09;100.00;99858.25;6169978;28;20241;-68
2023/10/13 15:41:43;;;;;;;8.23;4.97;;;;;;;21.07;100.00;99846.69;6169840;28;20581;-69
2023/10/13 15:45:16;;;;;;;9.05;4.72;;;;;;;21.03;100.00;99838.06;6178478;28;20238;-68
2023/10/13 15:48:36;;;;;;;6.28;4.35;;;;;;;21.06;100.00;99834.88;6170347;28;20600;-69
2023/10/13 15:51:59;;;;;;;9.27;5.00;;;;;;;20.96;100.00;99830.97;6168720;28;20230;-69
2023/10/13 15:55:20;;;;;;;6.70;4.93;;;;;;;20.95;100.00;99823.78;6167517;28;20632;-69
2023/10/13 15:58:43;;;;;;;5.60;4.30;;;;;;;21.05;100.00;99822.22;6166299;28;21245;-69
2023/10/13 16:02:07;;;;;;;11.02;4.82;;;;;;;20.95;100.00;99821.06;6162017;28;20234;-69
2023/10/13 16:05:34;;;;;;;6.47;5.78;;;;;;;20.91;100.00;99826.16;6170910;28;20245;-68
2023/10/13 16:08:56;;;;;;;8.05;4.70;;;;;;;21.07;100.00;99839.28;6165225;28;20238;-69
2023/10/13 16:12:17;;;;;;;8.43;5.25;;;;;;;20.95;100.00;99830.13;6179247;28;20238;-69
2023/10/13 16:15:42;;;;;;;8.20;5.55;;;;;;;21.01;100.00;99837.44;6182784;28;20237;-69
2023/10/13 16:19:04;;;;;;;8.30;5.20;;;;;;;20.90;100.00;99813.53;6171901;28;20230;-68
2023/10/13 16:22:25;;;;;;;6.13;5.15;;;;;;;20.71;100.00;99809.94;6160765;28;20296;-69
2023/10/13 16:25:49;;;;;;;6.35;4.25;;;;;;;20.88;100.00;99795.66;6168378;28;20245;-69
2023/10/13 16:29:09;;;;;;;8.60;4.60;;;;;;;20.78;100.00;99820.81;6173309;28;20226;-70
2023/10/13 16:32:30;;;;;;;3.80;3.50;;;;;;;20.83;100.00;99818.25;6164233;28;20244;-70
2023/10/13 16:35:53;;;;;;;5.00;3.45;;;;;;;20.69;100.00;99836.72;6166368;28;20231;-70
2023/10/13 16:39:15;;;;;;;7.07;4.45;;;;;;;20.50;100.00;99820.50;6173647;28;20231;-69
2023/10/13 16:42:39;;;;;;;14.63;5.28;;;;;;;20.33;100.00;99842.16;6171320;28;20237;-69
2023/10/13 16:46:00;;;;;;;6.47;3.83;;;;;;;19.93;100.00;99848.97;6167269;28;20238;-70
2023/10/13 16:49:21;;;;;;;14.02;5.85;;;;;;;19.74;100.00;99855.41;6169764;28;20623;-69
2023/10/13 16:52:42;;;;;;;6.95;3.90;;;;;;;19.58;100.00;99850.47;6167641;28;20225;-68
2023/10/13 16:56:03;;;;;;;9.90;4.15;;;;;;;19.66;100.00;99853.78;6167553;28;23192;-69
2023/10/13 16:59:26;;;;;;;7.50;4.10;;;;;;;19.60;100.00;99860.16;6169209;28;20246;-70
2023/10/13 17:02:46;;;;;;;7.00;3.67;;;;;;;19.40;100.00;99855.84;6161489;28;20235;-69
2023/10/13 17:06:08;;;;;;;6.20;3.50;;;;;;;19.31;100.00;99866.16;6174203;28;20234;-69
2023/10/13 17:09:33;;;;;;;4.22;3.75;;;;;;;19.28;100.00;99893.06;6174643;28;20237;-69
2023/10/13 17:12:54;;;;;;;6.45;3.40;;;;;;;19.01;100.00;99874.03;6152856;28;20596;-70
2023/10/13 17:16:18;;;;;;;6.00;4.25;;;;;;;19.21;100.00;99867.66;6163946;28;20519;-70
2023/10/13 17:19:38;;;;;;;6.28;3.83;;;;;;;19.25;100.00;99894.34;6170355;28;20226;-71
2023/10/13 17:22:59;;;;;;;4.45;3.38;;;;;;;19.17;100.00;99869.97;6169620;28;20223;-70
2023/10/13 17:26:22;;;;;;;4.75;3.08;;;;;;;19.41;100.00;99882.09;6169822;28;20230;-68
2023/10/13 17:29:44;;;;;;;6.50;4.22;;;;;;;19.44;100.00;99889.88;6175685;28;20234;-70
2023/10/13 17:33:11;;;;;;;5.60;3.70;;;;;;;19.41;100.00;99884.84;6167590;28;20234;-69
2023/10/13 17:36:32;;;;;;;4.70;3.92;;;;;;;19.29;100.00;99876.47;6178425;28;20233;-69
2023/10/13 17:39:53;;;;;;;5.57;4.07;;;;;;;19.50;100.00;99850.72;6170426;28;20505;-69
2023/10/13 17:43:14;;;;;;;5.43;3.33;;;;;;;19.55;100.00;99845.44;6178535;28;20940;-69